sensor_id;sensor_type;location;lat;lon;timestamp;temperature;humidity
16158;DHT22;8184;60.256;18.694;2022-09-02T00:00:48;11.30;99.90
16158;DHT22;8184;60.256;18.694;2022-09-02T00:03:17;11.30;99.90
16158;DHT22;8184;60.256;18.694;2022-09-02T00:05:46;11.30;99.90
16158;DHT22;8184;60.256;18.694;2022-09-02T00:08:18;11.20;99.90
16158;DHT22;8184;60.256;18.694;2022-09-02T00:10:46;11.20;99.90
16158;DHT22;8184;60.256;18.694;2022-09-02T00:13:15;11.20;99.90
16158;DHT22;8184;60.256;18.694;2022-09-02T00:15:45;11.30;99.90
16158;DHT22;8184;60.256;18.694;2022-09-02T00:18:13;11.20;99.90
16158;DHT22;8184;60.256;18.694;2022-09-02T00:20:44;11.10;99.90
16158;DHT22;8184;60.256;18.694;2022-09-02T00:23:12;11.10;99.90
16158;DHT22;8184;60.256;18.694;2022-09-02T00:25:43;11.10;99.90
16158;DHT22;8184;60.256;18.694;2022-09-02T00:28:12;11.10;99.90
16158;DHT22;8184;60.256;18.694;2022-09-02T00:30:41;11.00;99.90
16158;DHT22;8184;60.256;18.694;2022-09-02T00:33:09;11.10;99.90
16158;DHT22;8184;60.256;18.694;2022-09-02T00:35:40;11.10;99.90
16158;DHT22;8184;60.256;18.694;2022-09-02T00:38:09;11.20;99.90
16158;DHT22;8184;60.256;18.694;2022-09-02T00:40:37;11.20;99.90
16158;DHT22;8184;60.256;18.694;2022-09-02T00:43:11;11.20;99.90
16158;DHT22;8184;60.256;18.694;2022-09-02T00:45:40;11.20;99.90
16158;DHT22;8184;60.256;18.694;2022-09-02T00:48:08;11.20;99.90
16158;DHT22;8184;60.256;18.694;2022-09-02T00:50:36;11.30;99.90
16158;DHT22;8184;60.256;18.694;2022-09-02T00:53:06;11.30;99.90
16158;DHT22;8184;60.256;18.694;2022-09-02T00:55:35;11.40;99.90
16158;DHT22;8184;60.256;18.694;2022-09-02T00:58:05;11.30;99.90
16158;DHT22;8184;60.256;18.694;2022-09-02T01:00:39;11.20;99.90
16158;DHT22;8184;60.256;18.694;2022-09-02T01:03:09;11.20;99.90
16158;DHT22;8184;60.256;18.694;2022-09-02T01:05:39;11.10;99.90
16158;DHT22;8184;60.256;18.694;2022-09-02T01:08:10;11.10;99.90
16158;DHT22;8184;60.256;18.694;2022-09-02T01:10:39;11.00;99.90
16158;DHT22;8184;60.256;18.694;2022-09-02T01:13:09;11.00;99.90
16158;DHT22;8184;60.256;18.694;2022-09-02T01:15:39;11.00;99.90
16158;DHT22;8184;60.256;18.694;2022-09-02T01:18:10;10.90;99.90
16158;DHT22;8184;60.256;18.694;2022-09-02T01:20:39;10.90;99.90
16158;DHT22;8184;60.256;18.694;2022-09-02T01:23:09;10.90;99.90
16158;DHT22;8184;60.256;18.694;2022-09-02T01:25:38;10.90;99.90
16158;DHT22;8184;60.256;18.694;2022-09-02T01:28:07;11.00;99.90
16158;DHT22;8184;60.256;18.694;2022-09-02T01:30:45;11.00;99.90
16158;DHT22;8184;60.256;18.694;2022-09-02T01:33:14;11.10;99.90
16158;DHT22;8184;60.256;18.694;2022-09-02T01:35:44;11.10;99.90
16158;DHT22;8184;60.256;18.694;2022-09-02T01:38:14;11.10;99.90
16158;DHT22;8184;60.256;18.694;2022-09-02T01:40:43;11.00;99.90
16158;DHT22;8184;60.256;18.694;2022-09-02T01:43:14;11.10;99.90
16158;DHT22;8184;60.256;18.694;2022-09-02T01:45:44;11.10;99.90
16158;DHT22;8184;60.256;18.694;2022-09-02T01:48:12;11.10;99.90
16158;DHT22;8184;60.256;18.694;2022-09-02T01:50:48;11.00;99.90
16158;DHT22;8184;60.256;18.694;2022-09-02T01:53:18;11.00;99.90
16158;DHT22;8184;60.256;18.694;2022-09-02T01:55:51;11.00;99.90
16158;DHT22;8184;60.256;18.694;2022-09-02T01:58:20;11.00;99.90
16158;DHT22;8184;60.256;18.694;2022-09-02T02:00:49;11.00;99.90
16158;DHT22;8184;60.256;18.694;2022-09-02T02:03:17;11.00;99.90
16158;DHT22;8184;60.256;18.694;2022-09-02T02:05:46;10.90;99.90
16158;DHT22;8184;60.256;18.694;2022-09-02T02:08:14;10.80;99.90
16158;DHT22;8184;60.256;18.694;2022-09-02T02:10:44;10.90;99.90
16158;DHT22;8184;60.256;18.694;2022-09-02T02:13:13;10.90;99.90
16158;DHT22;8184;60.256;18.694;2022-09-02T02:15:42;11.00;99.90
16158;DHT22;8184;60.256;18.694;2022-09-02T02:18:10;10.90;99.90
16158;DHT22;8184;60.256;18.694;2022-09-02T02:20:38;11.00;99.90
16158;DHT22;8184;60.256;18.694;2022-09-02T02:23:10;11.00;99.90
16158;DHT22;8184;60.256;18.694;2022-09-02T02:25:41;11.00;99.90
16158;DHT22;8184;60.256;18.694;2022-09-02T02:28:10;11.10;99.90
16158;DHT22;8184;60.256;18.694;2022-09-02T02:30:40;11.00;99.90
16158;DHT22;8184;60.256;18.694;2022-09-02T02:33:08;11.00;99.90
16158;DHT22;8184;60.256;18.694;2022-09-02T02:35:36;10.90;99.90
16158;DHT22;8184;60.256;18.694;2022-09-02T02:38:04;10.90;99.90
16158;DHT22;8184;60.256;18.694;2022-09-02T02:40:33;10.90;99.90
16158;DHT22;8184;60.256;18.694;2022-09-02T02:43:01;10.90;99.90
16158;DHT22;8184;60.256;18.694;2022-09-02T02:45:31;11.00;99.90
16158;DHT22;8184;60.256;18.694;2022-09-02T02:47:59;10.80;99.90
16158;DHT22;8184;60.256;18.694;2022-09-02T02:50:27;10.90;99.90
16158;DHT22;8184;60.256;18.694;2022-09-02T02:52:55;10.80;99.90
16158;DHT22;8184;60.256;18.694;2022-09-02T02:55:23;10.70;99.90
16158;DHT22;8184;60.256;18.694;2022-09-02T02:57:52;10.70;99.90
16158;DHT22;8184;60.256;18.694;2022-09-02T03:00:21;10.70;99.90
16158;DHT22;8184;60.256;18.694;2022-09-02T03:02:51;10.70;99.90
16158;DHT22;8184;60.256;18.694;2022-09-02T03:05:21;10.70;99.90
16158;DHT22;8184;60.256;18.694;2022-09-02T03:07:50;10.90;99.90
16158;DHT22;8184;60.256;18.694;2022-09-02T03:10:18;10.90;99.90
16158;DHT22;8184;60.256;18.694;2022-09-02T03:12:47;11.00;99.90
16158;DHT22;8184;60.256;18.694;2022-09-02T03:15:17;10.80;99.90
16158;DHT22;8184;60.256;18.694;2022-09-02T03:17:46;10.50;99.90
16158;DHT22;8184;60.256;18.694;2022-09-02T03:20:16;10.20;99.90
16158;DHT22;8184;60.256;18.694;2022-09-02T03:22:47;10.10;99.90
16158;DHT22;8184;60.256;18.694;2022-09-02T03:25:17;10.00;99.90
16158;DHT22;8184;60.256;18.694;2022-09-02T03:27:49;10.10;99.90
16158;DHT22;8184;60.256;18.694;2022-09-02T03:30:18;10.10;99.90
16158;DHT22;8184;60.256;18.694;2022-09-02T03:32:46;10.00;99.90
16158;DHT22;8184;60.256;18.694;2022-09-02T03:35:16;10.00;99.90
16158;DHT22;8184;60.256;18.694;2022-09-02T03:37:45;9.90;99.90
16158;DHT22;8184;60.256;18.694;2022-09-02T03:40:15;10.00;99.90
16158;DHT22;8184;60.256;18.694;2022-09-02T03:42:45;10.00;99.90
16158;DHT22;8184;60.256;18.694;2022-09-02T03:45:14;10.00;99.90
16158;DHT22;8184;60.256;18.694;2022-09-02T03:47:43;10.00;99.90
16158;DHT22;8184;60.256;18.694;2022-09-02T03:50:18;10.00;99.90
16158;DHT22;8184;60.256;18.694;2022-09-02T03:52:46;10.10;99.90
16158;DHT22;8184;60.256;18.694;2022-09-02T03:55:15;10.10;99.90
16158;DHT22;8184;60.256;18.694;2022-09-02T03:57:44;10.10;99.90
16158;DHT22;8184;60.256;18.694;2022-09-02T04:00:15;10.20;99.90
16158;DHT22;8184;60.256;18.694;2022-09-02T04:02:43;10.20;99.90
16158;DHT22;8184;60.256;18.694;2022-09-02T04:05:15;10.20;99.90
16158;DHT22;8184;60.256;18.694;2022-09-02T04:07:45;10.30;99.90
16158;DHT22;8184;60.256;18.694;2022-09-02T04:10:13;10.30;99.90
16158;DHT22;8184;60.256;18.694;2022-09-02T04:12:41;10.30;99.90
16158;DHT22;8184;60.256;18.694;2022-09-02T04:15:10;10.30;99.90
16158;DHT22;8184;60.256;18.694;2022-09-02T04:17:39;10.40;99.90
16158;DHT22;8184;60.256;18.694;2022-09-02T04:20:09;10.50;99.90
16158;DHT22;8184;60.256;18.694;2022-09-02T04:22:38;10.50;99.90
16158;DHT22;8184;60.256;18.694;2022-09-02T04:25:08;10.60;99.90
16158;DHT22;8184;60.256;18.694;2022-09-02T04:27:37;10.70;99.90
16158;DHT22;8184;60.256;18.694;2022-09-02T04:30:06;10.70;99.90
16158;DHT22;8184;60.256;18.694;2022-09-02T04:32:34;10.80;99.90
16158;DHT22;8184;60.256;18.694;2022-09-02T04:35:06;10.80;99.90
16158;DHT22;8184;60.256;18.694;2022-09-02T04:37:35;10.80;99.90
16158;DHT22;8184;60.256;18.694;2022-09-02T04:40:03;10.80;99.90
16158;DHT22;8184;60.256;18.694;2022-09-02T04:42:33;10.80;99.90
16158;DHT22;8184;60.256;18.694;2022-09-02T04:45:04;10.80;99.90
16158;DHT22;8184;60.256;18.694;2022-09-02T04:47:32;10.80;99.90
16158;DHT22;8184;60.256;18.694;2022-09-02T04:50:01;10.90;99.90
16158;DHT22;8184;60.256;18.694;2022-09-02T04:52:29;10.80;99.90
16158;DHT22;8184;60.256;18.694;2022-09-02T04:54:57;10.80;99.90
16158;DHT22;8184;60.256;18.694;2022-09-02T04:57:25;10.80;99.90
16158;DHT22;8184;60.256;18.694;2022-09-02T04:59:54;10.80;99.90
16158;DHT22;8184;60.256;18.694;2022-09-02T05:02:22;10.80;99.90
16158;DHT22;8184;60.256;18.694;2022-09-02T05:04:51;10.90;99.90
16158;DHT22;8184;60.256;18.694;2022-09-02T05:07:19;11.00;99.90
16158;DHT22;8184;60.256;18.694;2022-09-02T05:09:47;11.00;99.90
16158;DHT22;8184;60.256;18.694;2022-09-02T05:12:16;10.90;99.90
16158;DHT22;8184;60.256;18.694;2022-09-02T05:14:44;10.90;99.90
16158;DHT22;8184;60.256;18.694;2022-09-02T05:17:16;10.70;99.90
16158;DHT22;8184;60.256;18.694;2022-09-02T05:19:44;10.60;99.90
16158;DHT22;8184;60.256;18.694;2022-09-02T05:22:15;10.50;99.90
16158;DHT22;8184;60.256;18.694;2022-09-02T05:24:43;10.50;99.90
16158;DHT22;8184;60.256;18.694;2022-09-02T05:27:13;10.40;99.90
16158;DHT22;8184;60.256;18.694;2022-09-02T05:29:42;10.50;99.90
16158;DHT22;8184;60.256;18.694;2022-09-02T05:32:11;10.60;99.90
16158;DHT22;8184;60.256;18.694;2022-09-02T05:34:41;10.50;99.90
16158;DHT22;8184;60.256;18.694;2022-09-02T05:37:09;10.60;99.90
16158;DHT22;8184;60.256;18.694;2022-09-02T05:39:37;10.70;99.90
16158;DHT22;8184;60.256;18.694;2022-09-02T05:42:06;10.90;99.90
16158;DHT22;8184;60.256;18.694;2022-09-02T05:44:35;11.00;99.90
16158;DHT22;8184;60.256;18.694;2022-09-02T05:47:04;11.20;99.90
16158;DHT22;8184;60.256;18.694;2022-09-02T05:49:32;11.20;99.90
16158;DHT22;8184;60.256;18.694;2022-09-02T05:52:02;11.30;99.90
16158;DHT22;8184;60.256;18.694;2022-09-02T05:54:31;11.50;99.90
16158;DHT22;8184;60.256;18.694;2022-09-02T05:57:00;11.60;99.90
16158;DHT22;8184;60.256;18.694;2022-09-02T05:59:32;11.70;99.90
16158;DHT22;8184;60.256;18.694;2022-09-02T06:02:03;11.70;99.90
16158;DHT22;8184;60.256;18.694;2022-09-02T06:04:31;11.50;99.90
16158;DHT22;8184;60.256;18.694;2022-09-02T06:06:59;11.50;99.90
16158;DHT22;8184;60.256;18.694;2022-09-02T06:09:29;11.60;99.90
16158;DHT22;8184;60.256;18.694;2022-09-02T06:11:57;11.70;99.90
16158;DHT22;8184;60.256;18.694;2022-09-02T06:14:25;11.80;99.90
16158;DHT22;8184;60.256;18.694;2022-09-02T06:16:54;11.80;99.90
16158;DHT22;8184;60.256;18.694;2022-09-02T06:19:25;11.50;99.90
16158;DHT22;8184;60.256;18.694;2022-09-02T06:21:55;11.30;99.90
16158;DHT22;8184;60.256;18.694;2022-09-02T06:24:23;11.10;99.90
16158;DHT22;8184;60.256;18.694;2022-09-02T06:26:54;10.80;99.90
16158;DHT22;8184;60.256;18.694;2022-09-02T06:29:23;10.70;99.90
16158;DHT22;8184;60.256;18.694;2022-09-02T06:31:54;10.90;99.90
16158;DHT22;8184;60.256;18.694;2022-09-02T06:34:22;11.10;99.90
16158;DHT22;8184;60.256;18.694;2022-09-02T06:36:52;11.10;99.90
16158;DHT22;8184;60.256;18.694;2022-09-02T06:39:22;10.90;99.90
16158;DHT22;8184;60.256;18.694;2022-09-02T06:41:52;10.90;99.90
16158;DHT22;8184;60.256;18.694;2022-09-02T06:44:26;11.10;99.90
16158;DHT22;8184;60.256;18.694;2022-09-02T06:46:58;11.60;99.90
16158;DHT22;8184;60.256;18.694;2022-09-02T06:49:28;12.20;99.90
16158;DHT22;8184;60.256;18.694;2022-09-02T06:51:58;12.50;99.90
16158;DHT22;8184;60.256;18.694;2022-09-02T06:54:26;12.70;99.90
16158;DHT22;8184;60.256;18.694;2022-09-02T06:56:54;12.80;99.90
16158;DHT22;8184;60.256;18.694;2022-09-02T06:59:22;13.00;99.90
16158;DHT22;8184;60.256;18.694;2022-09-02T07:01:51;13.20;99.90
16158;DHT22;8184;60.256;18.694;2022-09-02T07:04:19;13.10;99.90
16158;DHT22;8184;60.256;18.694;2022-09-02T07:07:05;12.90;99.90
16158;DHT22;8184;60.256;18.694;2022-09-02T07:09:34;12.90;99.90
16158;DHT22;8184;60.256;18.694;2022-09-02T07:12:02;12.90;99.90
16158;DHT22;8184;60.256;18.694;2022-09-02T07:14:34;12.90;99.90
16158;DHT22;8184;60.256;18.694;2022-09-02T07:17:04;13.20;99.90
16158;DHT22;8184;60.256;18.694;2022-09-02T07:19:33;13.00;99.90
16158;DHT22;8184;60.256;18.694;2022-09-02T07:22:03;13.00;99.90
16158;DHT22;8184;60.256;18.694;2022-09-02T07:24:31;13.20;99.90
16158;DHT22;8184;60.256;18.694;2022-09-02T07:27:00;13.40;99.90
16158;DHT22;8184;60.256;18.694;2022-09-02T07:29:28;13.40;99.90
16158;DHT22;8184;60.256;18.694;2022-09-02T07:31:56;13.50;99.90
16158;DHT22;8184;60.256;18.694;2022-09-02T07:34:28;13.40;99.90
16158;DHT22;8184;60.256;18.694;2022-09-02T07:36:57;13.40;99.90
16158;DHT22;8184;60.256;18.694;2022-09-02T07:39:30;13.40;99.90
16158;DHT22;8184;60.256;18.694;2022-09-02T07:41:59;13.30;99.90
16158;DHT22;8184;60.256;18.694;2022-09-02T07:44:27;13.10;99.90
16158;DHT22;8184;60.256;18.694;2022-09-02T07:46:55;13.00;99.90
16158;DHT22;8184;60.256;18.694;2022-09-02T07:49:25;12.90;99.90
16158;DHT22;8184;60.256;18.694;2022-09-02T07:52:18;12.80;99.90
16158;DHT22;8184;60.256;18.694;2022-09-02T07:54:46;12.80;99.90
16158;DHT22;8184;60.256;18.694;2022-09-02T07:57:17;12.50;99.90
16158;DHT22;8184;60.256;18.694;2022-09-02T07:59:49;12.80;99.90
16158;DHT22;8184;60.256;18.694;2022-09-02T08:02:17;13.20;99.90
16158;DHT22;8184;60.256;18.694;2022-09-02T08:04:45;13.40;99.90
16158;DHT22;8184;60.256;18.694;2022-09-02T08:07:14;13.80;99.90
16158;DHT22;8184;60.256;18.694;2022-09-02T08:09:46;13.80;99.90
16158;DHT22;8184;60.256;18.694;2022-09-02T08:12:16;14.00;99.90
16158;DHT22;8184;60.256;18.694;2022-09-02T08:14:48;14.30;99.90
16158;DHT22;8184;60.256;18.694;2022-09-02T08:17:16;13.90;99.90
16158;DHT22;8184;60.256;18.694;2022-09-02T08:19:50;13.70;99.90
16158;DHT22;8184;60.256;18.694;2022-09-02T08:22:18;13.30;99.90
16158;DHT22;8184;60.256;18.694;2022-09-02T08:24:47;13.40;99.90
16158;DHT22;8184;60.256;18.694;2022-09-02T08:27:15;12.60;99.90
16158;DHT22;8184;60.256;18.694;2022-09-02T08:29:44;12.50;99.90
16158;DHT22;8184;60.256;18.694;2022-09-02T08:32:15;12.60;99.90
16158;DHT22;8184;60.256;18.694;2022-09-02T08:34:44;12.80;99.90
16158;DHT22;8184;60.256;18.694;2022-09-02T08:37:12;12.70;99.90
16158;DHT22;8184;60.256;18.694;2022-09-02T08:39:41;12.80;99.90
16158;DHT22;8184;60.256;18.694;2022-09-02T08:42:11;12.70;99.90
16158;DHT22;8184;60.256;18.694;2022-09-02T08:44:42;13.10;99.90
16158;DHT22;8184;60.256;18.694;2022-09-02T08:47:12;13.40;99.90
16158;DHT22;8184;60.256;18.694;2022-09-02T08:49:42;13.50;99.90
16158;DHT22;8184;60.256;18.694;2022-09-02T08:52:12;13.40;99.90
16158;DHT22;8184;60.256;18.694;2022-09-02T08:54:45;13.00;99.90
16158;DHT22;8184;60.256;18.694;2022-09-02T08:57:16;13.30;99.90
16158;DHT22;8184;60.256;18.694;2022-09-02T08:59:44;13.40;99.90
16158;DHT22;8184;60.256;18.694;2022-09-02T09:02:15;13.40;99.90
16158;DHT22;8184;60.256;18.694;2022-09-02T09:04:52;13.50;99.90
16158;DHT22;8184;60.256;18.694;2022-09-02T09:07:27;13.80;99.90
16158;DHT22;8184;60.256;18.694;2022-09-02T09:09:59;14.20;99.90
16158;DHT22;8184;60.256;18.694;2022-09-02T09:12:45;14.30;99.90
16158;DHT22;8184;60.256;18.694;2022-09-02T09:15:18;14.10;99.90
16158;DHT22;8184;60.256;18.694;2022-09-02T09:17:50;13.90;99.90
16158;DHT22;8184;60.256;18.694;2022-09-02T09:20:20;14.00;99.90
16158;DHT22;8184;60.256;18.694;2022-09-02T09:22:50;14.10;99.90
16158;DHT22;8184;60.256;18.694;2022-09-02T09:25:19;14.30;99.90
16158;DHT22;8184;60.256;18.694;2022-09-02T09:27:48;13.80;99.90
16158;DHT22;8184;60.256;18.694;2022-09-02T09:30:16;13.70;99.90
16158;DHT22;8184;60.256;18.694;2022-09-02T09:32:46;13.40;99.90
16158;DHT22;8184;60.256;18.694;2022-09-02T09:35:15;13.50;99.90
16158;DHT22;8184;60.256;18.694;2022-09-02T09:37:43;13.10;99.90
16158;DHT22;8184;60.256;18.694;2022-09-02T09:40:27;13.50;99.90
16158;DHT22;8184;60.256;18.694;2022-09-02T09:42:58;13.70;99.90
16158;DHT22;8184;60.256;18.694;2022-09-02T09:45:50;13.90;99.90
16158;DHT22;8184;60.256;18.694;2022-09-02T09:48:21;13.70;99.90
16158;DHT22;8184;60.256;18.694;2022-09-02T09:51:11;14.00;99.90
16158;DHT22;8184;60.256;18.694;2022-09-02T09:53:39;14.20;99.90
16158;DHT22;8184;60.256;18.694;2022-09-02T09:56:21;14.00;99.90
16158;DHT22;8184;60.256;18.694;2022-09-02T09:58:51;14.10;99.90
16158;DHT22;8184;60.256;18.694;2022-09-02T10:01:20;13.80;99.90
16158;DHT22;8184;60.256;18.694;2022-09-02T10:03:50;14.00;99.90
16158;DHT22;8184;60.256;18.694;2022-09-02T10:06:20;13.50;99.90
16158;DHT22;8184;60.256;18.694;2022-09-02T10:08:49;13.20;99.90
16158;DHT22;8184;60.256;18.694;2022-09-02T10:11:19;13.30;99.90
16158;DHT22;8184;60.256;18.694;2022-09-02T10:13:48;13.10;99.90
16158;DHT22;8184;60.256;18.694;2022-09-02T10:16:27;12.80;99.90
16158;DHT22;8184;60.256;18.694;2022-09-02T10:18:58;13.40;99.90
16158;DHT22;8184;60.256;18.694;2022-09-02T10:21:34;13.40;99.90
16158;DHT22;8184;60.256;18.694;2022-09-02T10:24:11;13.80;99.90
16158;DHT22;8184;60.256;18.694;2022-09-02T10:26:46;13.90;99.90
16158;DHT22;8184;60.256;18.694;2022-09-02T10:29:32;13.60;99.90
16158;DHT22;8184;60.256;18.694;2022-09-02T10:32:13;14.30;99.90
16158;DHT22;8184;60.256;18.694;2022-09-02T10:34:49;14.50;99.90
16158;DHT22;8184;60.256;18.694;2022-09-02T10:37:22;14.80;99.90
16158;DHT22;8184;60.256;18.694;2022-09-02T10:39:54;14.80;99.90
16158;DHT22;8184;60.256;18.694;2022-09-02T10:42:26;14.60;99.90
16158;DHT22;8184;60.256;18.694;2022-09-02T10:45:00;14.60;99.90
16158;DHT22;8184;60.256;18.694;2022-09-02T10:47:33;14.50;99.90
16158;DHT22;8184;60.256;18.694;2022-09-02T10:50:06;14.90;99.90
16158;DHT22;8184;60.256;18.694;2022-09-02T10:55:33;15.00;99.90
16158;DHT22;8184;60.256;18.694;2022-09-02T10:58:10;14.40;99.90
16158;DHT22;8184;60.256;18.694;2022-09-02T11:00:39;13.30;99.90
16158;DHT22;8184;60.256;18.694;2022-09-02T11:03:13;13.50;99.90
16158;DHT22;8184;60.256;18.694;2022-09-02T11:05:45;13.40;99.90
16158;DHT22;8184;60.256;18.694;2022-09-02T11:08:16;13.80;99.90
16158;DHT22;8184;60.256;18.694;2022-09-02T11:10:48;13.60;99.90
16158;DHT22;8184;60.256;18.694;2022-09-02T11:13:20;13.60;99.90
16158;DHT22;8184;60.256;18.694;2022-09-02T11:15:51;13.60;99.90
16158;DHT22;8184;60.256;18.694;2022-09-02T11:18:25;14.10;99.90
16158;DHT22;8184;60.256;18.694;2022-09-02T11:21:02;13.80;99.90
16158;DHT22;8184;60.256;18.694;2022-09-02T11:23:33;14.40;99.90
16158;DHT22;8184;60.256;18.694;2022-09-02T11:26:04;14.10;99.90
16158;DHT22;8184;60.256;18.694;2022-09-02T11:28:37;14.40;99.90
16158;DHT22;8184;60.256;18.694;2022-09-02T11:31:11;14.20;99.90
16158;DHT22;8184;60.256;18.694;2022-09-02T11:33:48;13.80;99.90
16158;DHT22;8184;60.256;18.694;2022-09-02T11:36:19;14.40;99.90
16158;DHT22;8184;60.256;18.694;2022-09-02T11:38:51;15.00;99.90
16158;DHT22;8184;60.256;18.694;2022-09-02T11:41:24;14.90;99.90
16158;DHT22;8184;60.256;18.694;2022-09-02T11:44:12;14.80;99.90
16158;DHT22;8184;60.256;18.694;2022-09-02T11:46:48;15.00;99.90
16158;DHT22;8184;60.256;18.694;2022-09-02T11:49:29;15.40;99.90
16158;DHT22;8184;60.256;18.694;2022-09-02T11:52:05;15.60;99.90
16158;DHT22;8184;60.256;18.694;2022-09-02T11:54:35;15.20;99.90
16158;DHT22;8184;60.256;18.694;2022-09-02T11:57:04;15.10;99.90
16158;DHT22;8184;60.256;18.694;2022-09-02T12:02:30;15.10;99.90
16158;DHT22;8184;60.256;18.694;2022-09-02T12:07:50;14.70;99.90
16158;DHT22;8184;60.256;18.694;2022-09-02T12:13:03;15.20;99.90
16158;DHT22;8184;60.256;18.694;2022-09-02T12:15:35;15.40;99.90
16158;DHT22;8184;60.256;18.694;2022-09-02T12:21:04;14.90;99.90
16158;DHT22;8184;60.256;18.694;2022-09-02T12:26:26;15.20;99.90
16158;DHT22;8184;60.256;18.694;2022-09-02T12:29:09;15.40;99.90
16158;DHT22;8184;60.256;18.694;2022-09-02T12:31:37;15.70;99.90
16158;DHT22;8184;60.256;18.694;2022-09-02T12:37:00;15.50;99.90
16158;DHT22;8184;60.256;18.694;2022-09-02T12:39:50;15.20;99.90
16158;DHT22;8184;60.256;18.694;2022-09-02T12:42:23;14.60;99.90
16158;DHT22;8184;60.256;18.694;2022-09-02T12:44:54;14.90;99.90
16158;DHT22;8184;60.256;18.694;2022-09-02T12:47:37;14.90;99.90
16158;DHT22;8184;60.256;18.694;2022-09-02T12:50:10;14.70;99.90
16158;DHT22;8184;60.256;18.694;2022-09-02T12:52:42;15.40;99.90
16158;DHT22;8184;60.256;18.694;2022-09-02T12:55:18;15.10;99.90
16158;DHT22;8184;60.256;18.694;2022-09-02T12:57:49;15.70;99.90
16158;DHT22;8184;60.256;18.694;2022-09-02T13:00:24;15.70;99.90
16158;DHT22;8184;60.256;18.694;2022-09-02T13:02:58;14.80;99.90
16158;DHT22;8184;60.256;18.694;2022-09-02T13:05:30;14.80;99.90
16158;DHT22;8184;60.256;18.694;2022-09-02T13:08:18;14.80;99.90
16158;DHT22;8184;60.256;18.694;2022-09-02T13:10:54;14.60;99.90
16158;DHT22;8184;60.256;18.694;2022-09-02T13:16:09;14.60;99.90
16158;DHT22;8184;60.256;18.694;2022-09-02T13:21:37;14.70;99.90
16158;DHT22;8184;60.256;18.694;2022-09-02T13:24:16;14.70;99.90
16158;DHT22;8184;60.256;18.694;2022-09-02T13:26:58;14.10;99.90
16158;DHT22;8184;60.256;18.694;2022-09-02T13:29:51;14.30;99.90
16158;DHT22;8184;60.256;18.694;2022-09-02T13:32:28;14.00;99.90
16158;DHT22;8184;60.256;18.694;2022-09-02T13:34:57;14.30;99.90
16158;DHT22;8184;60.256;18.694;2022-09-02T13:37:29;14.20;99.90
16158;DHT22;8184;60.256;18.694;2022-09-02T13:39:58;13.90;99.90
16158;DHT22;8184;60.256;18.694;2022-09-02T13:42:27;14.20;99.90
16158;DHT22;8184;60.256;18.694;2022-09-02T13:45:07;14.30;99.90
16158;DHT22;8184;60.256;18.694;2022-09-02T13:47:39;13.90;99.90
16158;DHT22;8184;60.256;18.694;2022-09-02T13:50:08;14.10;99.90
16158;DHT22;8184;60.256;18.694;2022-09-02T13:52:36;14.40;99.90
16158;DHT22;8184;60.256;18.694;2022-09-02T13:55:25;14.50;99.90
16158;DHT22;8184;60.256;18.694;2022-09-02T13:57:54;14.00;99.90
16158;DHT22;8184;60.256;18.694;2022-09-02T14:00:29;14.20;99.90
16158;DHT22;8184;60.256;18.694;2022-09-02T14:03:01;14.30;99.90
16158;DHT22;8184;60.256;18.694;2022-09-02T14:05:30;14.30;99.90
16158;DHT22;8184;60.256;18.694;2022-09-02T14:08:00;14.10;99.90
16158;DHT22;8184;60.256;18.694;2022-09-02T14:10:30;14.30;99.90
16158;DHT22;8184;60.256;18.694;2022-09-02T14:13:00;14.50;99.90
16158;DHT22;8184;60.256;18.694;2022-09-02T14:15:30;14.40;99.90
16158;DHT22;8184;60.256;18.694;2022-09-02T14:18:08;14.40;99.90
16158;DHT22;8184;60.256;18.694;2022-09-02T14:20:53;14.10;99.90
16158;DHT22;8184;60.256;18.694;2022-09-02T14:23:22;14.30;99.90
16158;DHT22;8184;60.256;18.694;2022-09-02T14:25:51;14.40;99.90
16158;DHT22;8184;60.256;18.694;2022-09-02T14:28:20;14.50;99.90
16158;DHT22;8184;60.256;18.694;2022-09-02T14:30:53;14.50;99.90
16158;DHT22;8184;60.256;18.694;2022-09-02T14:33:23;14.50;99.90
16158;DHT22;8184;60.256;18.694;2022-09-02T14:35:57;14.60;99.90
16158;DHT22;8184;60.256;18.694;2022-09-02T14:38:28;14.90;99.90
16158;DHT22;8184;60.256;18.694;2022-09-02T14:40:58;14.50;99.90
16158;DHT22;8184;60.256;18.694;2022-09-02T14:43:39;14.60;99.90
16158;DHT22;8184;60.256;18.694;2022-09-02T14:46:13;14.80;99.90
16158;DHT22;8184;60.256;18.694;2022-09-02T14:48:44;14.50;99.90
16158;DHT22;8184;60.256;18.694;2022-09-02T14:51:18;14.20;99.90
16158;DHT22;8184;60.256;18.694;2022-09-02T14:53:46;14.10;99.90
16158;DHT22;8184;60.256;18.694;2022-09-02T14:56:18;14.00;99.90
16158;DHT22;8184;60.256;18.694;2022-09-02T14:59:03;14.60;99.90
16158;DHT22;8184;60.256;18.694;2022-09-02T15:01:31;14.80;99.90
16158;DHT22;8184;60.256;18.694;2022-09-02T15:04:05;15.20;99.90
16158;DHT22;8184;60.256;18.694;2022-09-02T15:06:34;14.40;99.90
16158;DHT22;8184;60.256;18.694;2022-09-02T15:09:02;14.50;99.90
16158;DHT22;8184;60.256;18.694;2022-09-02T15:11:30;14.50;99.90
16158;DHT22;8184;60.256;18.694;2022-09-02T15:13:58;14.00;99.90
16158;DHT22;8184;60.256;18.694;2022-09-02T15:16:26;14.20;99.90
16158;DHT22;8184;60.256;18.694;2022-09-02T15:18:54;14.50;99.90
16158;DHT22;8184;60.256;18.694;2022-09-02T15:21:24;14.80;99.90
16158;DHT22;8184;60.256;18.694;2022-09-02T15:23:52;14.90;99.90
16158;DHT22;8184;60.256;18.694;2022-09-02T15:26:20;14.80;99.90
16158;DHT22;8184;60.256;18.694;2022-09-02T15:28:48;14.70;99.90
16158;DHT22;8184;60.256;18.694;2022-09-02T15:31:16;14.60;99.90
16158;DHT22;8184;60.256;18.694;2022-09-02T15:33:47;14.70;99.90
16158;DHT22;8184;60.256;18.694;2022-09-02T15:36:15;14.40;99.90
16158;DHT22;8184;60.256;18.694;2022-09-02T15:38:46;14.40;99.90
16158;DHT22;8184;60.256;18.694;2022-09-02T15:41:14;14.40;99.90
16158;DHT22;8184;60.256;18.694;2022-09-02T15:43:44;14.70;99.90
16158;DHT22;8184;60.256;18.694;2022-09-02T15:46:15;14.70;99.90
16158;DHT22;8184;60.256;18.694;2022-09-02T15:48:44;15.00;99.90
16158;DHT22;8184;60.256;18.694;2022-09-02T15:51:12;15.20;99.90
16158;DHT22;8184;60.256;18.694;2022-09-02T15:53:40;15.20;99.90
16158;DHT22;8184;60.256;18.694;2022-09-02T15:56:15;14.30;99.90
16158;DHT22;8184;60.256;18.694;2022-09-02T15:58:43;14.00;99.90
16158;DHT22;8184;60.256;18.694;2022-09-02T16:01:12;13.80;99.90
16158;DHT22;8184;60.256;18.694;2022-09-02T16:03:40;14.00;99.90
16158;DHT22;8184;60.256;18.694;2022-09-02T16:06:11;14.20;99.90
16158;DHT22;8184;60.256;18.694;2022-09-02T16:08:39;14.30;99.90
16158;DHT22;8184;60.256;18.694;2022-09-02T16:11:07;13.90;99.90
16158;DHT22;8184;60.256;18.694;2022-09-02T16:13:37;14.20;99.90
16158;DHT22;8184;60.256;18.694;2022-09-02T16:16:06;14.40;99.90
16158;DHT22;8184;60.256;18.694;2022-09-02T16:18:35;14.30;99.90